MSC Lea — 9HA2639 — position and weather

sailwx.info

Track history (hours):
 
Tides and Currents Weather Stations Pressure Air Temp Water Temp Dewpoint Dewpoint Depression Visibility Wind Speed Wind Dir Waves Ship Positions

MSC Lea

Last reported at 2015-May-03 05:11 UTC. Time now 2015-May-04 03:58 UTC.
Position N 39°54' E 025°49'.

Length 217 m; draft 9.2 m.

Type: Ship (hazmat cat A). MMSI: 215101000.

Date/timePositionNaut miles runAvg speedWind from/ knotsBaromVisibWave heightAir tempDewpointWater temp
2015-May-03 05:11N 39°54' E 025°49'  
2015-Apr-30 15:18N 41°31' E 029°35'23213.0
2015-Apr-29 21:29N 43°16' E 034°15'1213.3
2015-Apr-29 20:33N 43°22' E 034°30'13913.6
2015-Apr-29 10:22N 44°24' E 037°22'1113.7
2015-Apr-29 09:33N 44°29' E 037°36'1312.8
2015-Apr-29 08:33N 44°38' E 037°49'6 5.9
2015-Apr-29 07:33N 44°43' E 037°47'0 0.1
2015-Apr-29 06:34N 44°44' E 037°47'0 0.0
2015-Apr-29 05:31N 44°44' E 037°47'0 0.0
2015-Apr-29 04:32N 44°44' E 037°47'0 0.0
2015-Apr-29 03:30N 44°44' E 037°47'0 0.0
2015-Apr-29 02:33N 44°44' E 037°47'0 0.0
2015-Apr-29 01:31N 44°44' E 037°47'0 0.0
2015-Apr-29 00:32N 44°44' E 037°47'0 0.0
2015-Apr-28 23:32N 44°44' E 037°47'0 0.0
2015-Apr-28 22:33N 44°44' E 037°47'0 0.0
2015-Apr-28 21:31N 44°44' E 037°47'0 0.0
2015-Apr-28 20:31N 44°44' E 037°47'0 0.0
2015-Apr-28 19:32N 44°44' E 037°47'0 0.0
2015-Apr-28 18:33N 44°44' E 037°47'0 0.0
2015-Apr-28 17:33N 44°44' E 037°47'0 0.0
2015-Apr-28 16:31N 44°44' E 037°47'0 0.0
2015-Apr-28 15:32N 44°44' E 037°47'0 0.0
2015-Apr-28 14:32N 44°44' E 037°47'0 0.0
2015-Apr-28 13:33N 44°44' E 037°47'0 0.0
2015-Apr-28 12:31N 44°44' E 037°47'0 0.0
2015-Apr-28 11:31N 44°44' E 037°47'0 0.0
2015-Apr-28 10:32N 44°44' E 037°47'0 0.0
2015-Apr-28 09:33N 44°44' E 037°47'0 0.0
2015-Apr-28 08:33N 44°44' E 037°47'0 0.0
2015-Apr-28 07:31N 44°44' E 037°47'0 0.0
2015-Apr-28 06:32N 44°44' E 037°47'0 0.0
2015-Apr-28 05:32N 44°44' E 037°47'0 0.4
2015-Apr-28 04:33N 44°43' E 037°47'6 6.1
2015-Apr-28 03:33N 44°38' E 037°52'8 8.1
2015-Apr-28 02:33N 44°31' E 037°46'1312.9
2015-Apr-28 01:34N 44°25' E 037°30'1312.6
2015-Apr-28 00:33N 44°20' E 037°14'1312.8
2015-Apr-27 23:33N 44°14' E 036°58'1312.6
2015-Apr-27 22:33N 44°10' E 036°41'1312.8
2015-Apr-27 21:33N 44°11' E 036°23'1312.8
2015-Apr-27 20:33N 44°10' E 036°06'1412.9
2015-Apr-27 19:27N 44°10' E 035°46'1212.8
2015-Apr-27 18:33N 44°09' E 035°30'1312.9
2015-Apr-27 17:33N 44°09' E 035°12'1312.8
2015-Apr-27 16:33N 44°09' E 034°54'1312.7
2015-Apr-27 15:33N 44°08' E 034°36'1212.5
2015-Apr-27 14:33N 44°07' E 034°19'1212.4
2015-Apr-27 13:33N 44°07' E 034°02'1512.3
2015-Apr-27 12:20N 44°06' E 033°41'7712.5
2015-Apr-27 06:10N 44°03' E 031°53'812.4
2015-Apr-27 05:33N 44°02' E 031°43'198 5.5
2015-Apr-25 17:33N 41°19' E 029°12'37 4.7
2015-Apr-25 09:33N 40°47' E 028°46'1 1.0
2015-Apr-25 08:33N 40°47' E 028°44'1 1.2
2015-Apr-25 07:32N 40°46' E 028°43'9 8.5
2015-Apr-25 06:27N 40°49' E 028°31'22910.9
2015-Apr-24 09:21N 37°36' E 025°52'1113.8
2015-Apr-24 08:33N 37°26' E 025°55'1613.1
2015-Apr-24 07:21N 37°11' E 026°04'1113.0
2015-Apr-24 06:29N 37°01' E 026°09'  
Track history (hours):
 
Tides and Currents Weather Stations Pressure Air Temp Water Temp Dewpoint Dewpoint Depression Visibility Wind Speed Wind Dir Waves Ship Positions

MSC Lea

Last reported at 2015-May-03 05:11 UTC. Time now 2015-May-04 03:58 UTC.
Position N 39°54' E 025°49'.

Length 217 m; draft 9.2 m.

Type: Ship (hazmat cat A). MMSI: 215101000.

Date/timePositionNaut miles runAvg speedWind from/ knotsBaromVisibWave heightAir tempDewpointWater temp
2015-May-03 05:11N 39°54' E 025°49'  
2015-Apr-30 15:18N 41°31' E 029°35'23213.0
2015-Apr-29 21:29N 43°16' E 034°15'1213.3
2015-Apr-29 20:33N 43°22' E 034°30'13913.6
2015-Apr-29 10:22N 44°24' E 037°22'1113.7
2015-Apr-29 09:33N 44°29' E 037°36'1312.8
2015-Apr-29 08:33N 44°38' E 037°49'6 5.9
2015-Apr-29 07:33N 44°43' E 037°47'0 0.1
2015-Apr-29 06:34N 44°44' E 037°47'0 0.0
2015-Apr-29 05:31N 44°44' E 037°47'0 0.0
2015-Apr-29 04:32N 44°44' E 037°47'0 0.0
2015-Apr-29 03:30N 44°44' E 037°47'0 0.0
2015-Apr-29 02:33N 44°44' E 037°47'0 0.0
2015-Apr-29 01:31N 44°44' E 037°47'0 0.0
2015-Apr-29 00:32N 44°44' E 037°47'0 0.0
2015-Apr-28 23:32N 44°44' E 037°47'0 0.0
2015-Apr-28 22:33N 44°44' E 037°47'0 0.0
2015-Apr-28 21:31N 44°44' E 037°47'0 0.0
2015-Apr-28 20:31N 44°44' E 037°47'0 0.0
2015-Apr-28 19:32N 44°44' E 037°47'0 0.0
2015-Apr-28 18:33N 44°44' E 037°47'0 0.0
2015-Apr-28 17:33N 44°44' E 037°47'0 0.0
2015-Apr-28 16:31N 44°44' E 037°47'0 0.0
2015-Apr-28 15:32N 44°44' E 037°47'0 0.0
2015-Apr-28 14:32N 44°44' E 037°47'0 0.0
2015-Apr-28 13:33N 44°44' E 037°47'0 0.0
2015-Apr-28 12:31N 44°44' E 037°47'0 0.0
2015-Apr-28 11:31N 44°44' E 037°47'0 0.0
2015-Apr-28 10:32N 44°44' E 037°47'0 0.0
2015-Apr-28 09:33N 44°44' E 037°47'0 0.0
2015-Apr-28 08:33N 44°44' E 037°47'0 0.0
2015-Apr-28 07:31N 44°44' E 037°47'0 0.0
2015-Apr-28 06:32N 44°44' E 037°47'0 0.0
2015-Apr-28 05:32N 44°44' E 037°47'0 0.4
2015-Apr-28 04:33N 44°43' E 037°47'6 6.1
2015-Apr-28 03:33N 44°38' E 037°52'8 8.1
2015-Apr-28 02:33N 44°31' E 037°46'1312.9
2015-Apr-28 01:34N 44°25' E 037°30'1312.6
2015-Apr-28 00:33N 44°20' E 037°14'1312.8
2015-Apr-27 23:33N 44°14' E 036°58'1312.6
2015-Apr-27 22:33N 44°10' E 036°41'1312.8
2015-Apr-27 21:33N 44°11' E 036°23'1312.8
2015-Apr-27 20:33N 44°10' E 036°06'1412.9
2015-Apr-27 19:27N 44°10' E 035°46'1212.8
2015-Apr-27 18:33N 44°09' E 035°30'1312.9
2015-Apr-27 17:33N 44°09' E 035°12'1312.8
2015-Apr-27 16:33N 44°09' E 034°54'1312.7
2015-Apr-27 15:33N 44°08' E 034°36'1212.5
2015-Apr-27 14:33N 44°07' E 034°19'1212.4
2015-Apr-27 13:33N 44°07' E 034°02'1512.3
2015-Apr-27 12:20N 44°06' E 033°41'7712.5
2015-Apr-27 06:10N 44°03' E 031°53'812.4
2015-Apr-27 05:33N 44°02' E 031°43'198 5.5
2015-Apr-25 17:33N 41°19' E 029°12'37 4.7
2015-Apr-25 09:33N 40°47' E 028°46'1 1.0
2015-Apr-25 08:33N 40°47' E 028°44'1 1.2
2015-Apr-25 07:32N 40°46' E 028°43'9 8.5
2015-Apr-25 06:27N 40°49' E 028°31'22910.9
2015-Apr-24 09:21N 37°36' E 025°52'1113.8
2015-Apr-24 08:33N 37°26' E 025°55'1613.1
2015-Apr-24 07:21N 37°11' E 026°04'1113.0
2015-Apr-24 06:29N 37°01' E 026°09'  

Dump ship's entire track history